createdAt,value
2023-03-05T00:00:40.535Z,6.12
2023-03-05T00:03:07.298Z,6.15
2023-03-05T00:05:34.893Z,5.95
2023-03-05T00:08:01.594Z,5.73
2023-03-05T00:10:28.389Z,5.60
2023-03-05T00:12:54.920Z,5.69
2023-03-05T00:15:21.700Z,5.65
2023-03-05T00:17:48.314Z,5.63
2023-03-05T00:20:14.975Z,5.53
2023-03-05T00:22:41.644Z,5.58
2023-03-05T00:25:08.594Z,5.51
2023-03-05T00:27:35.118Z,5.67
2023-03-05T00:30:01.866Z,5.94
2023-03-05T00:32:28.631Z,5.85
2023-03-05T00:34:55.162Z,5.82
2023-03-05T00:37:21.850Z,5.66
2023-03-05T00:39:48.469Z,5.64
2023-03-05T00:42:15.044Z,5.39
2023-03-05T00:44:41.746Z,5.61
2023-03-05T00:47:08.352Z,5.72
2023-03-05T00:49:34.942Z,5.43
2023-03-05T00:52:01.565Z,5.50
2023-03-05T00:54:28.216Z,5.27
2023-03-05T00:56:54.737Z,5.44
2023-03-05T00:59:21.468Z,5.46
2023-03-05T01:01:48.220Z,5.42
2023-03-05T01:04:14.926Z,5.71
2023-03-05T01:06:44.872Z,5.65
2023-03-05T01:09:11.787Z,5.87
2023-03-05T01:11:38.341Z,5.94
2023-03-05T01:14:05.007Z,5.92
2023-03-05T01:16:31.864Z,5.80
2023-03-05T01:18:58.515Z,6.09
2023-03-05T01:21:25.387Z,5.91
2023-03-05T01:23:52.055Z,5.24
2023-03-05T01:26:18.577Z,5.33
2023-03-05T01:28:45.131Z,5.24
2023-03-05T01:31:12.184Z,5.24
2023-03-05T01:33:39.456Z,5.10
2023-03-05T01:36:13.521Z,5.56
2023-03-05T01:38:41.123Z,5.85
2023-03-05T01:41:09.174Z,5.98
2023-03-05T01:43:35.825Z,5.89
2023-03-05T01:46:32.005Z,5.54
2023-03-05T01:49:04.668Z,5.84
2023-03-05T01:51:42.928Z,5.76
2023-03-05T01:54:13.515Z,5.71
2023-03-05T01:56:41.836Z,5.70
2023-03-05T01:59:08.923Z,5.37
2023-03-05T02:04:13.554Z,5.40
2023-03-05T02:06:41.684Z,5.01
2023-03-05T02:09:08.275Z,5.41
2023-03-05T02:11:35.683Z,5.13
2023-03-05T02:14:04.071Z,5.16
2023-03-05T02:16:36.929Z,5.05
2023-03-05T02:19:05.872Z,5.22
2023-03-05T02:21:44.760Z,5.33
2023-03-05T02:24:13.175Z,5.43
2023-03-05T02:26:39.950Z,5.51
2023-03-05T02:29:08.893Z,5.24
2023-03-05T02:31:35.650Z,5.35
2023-03-05T02:34:02.314Z,5.60
2023-03-05T02:36:28.974Z,5.74
2023-03-05T02:38:57.130Z,5.64
2023-03-05T02:41:24.727Z,5.68
2023-03-05T02:43:51.590Z,5.24
2023-03-05T02:46:18.392Z,5.27
2023-03-05T02:48:45.129Z,5.34
2023-03-05T02:51:12.140Z,5.22
2023-03-05T02:53:38.782Z,5.03
2023-03-05T02:56:05.775Z,4.85
2023-03-05T02:58:32.403Z,4.46
2023-03-05T03:00:59.053Z,4.65
2023-03-05T03:03:25.642Z,4.80
2023-03-05T03:05:52.295Z,4.95
2023-03-05T03:08:18.925Z,4.75
2023-03-05T03:10:45.493Z,4.82
2023-03-05T03:13:12.078Z,5.05
2023-03-05T03:15:40.396Z,4.92
2023-03-05T03:18:06.970Z,4.89
2023-03-05T03:20:35.041Z,5.29
2023-03-05T03:23:01.982Z,5.18
2023-03-05T03:25:28.647Z,5.51
2023-03-05T03:27:55.228Z,5.87
2023-03-05T03:30:21.804Z,6.07
2023-03-05T03:32:48.356Z,5.71
2023-03-05T03:35:15.088Z,5.61
2023-03-05T03:37:41.675Z,5.69
2023-03-05T03:40:09.571Z,5.49
2023-03-05T03:42:36.212Z,5.43
2023-03-05T03:45:03.400Z,5.64
2023-03-05T03:47:31.144Z,5.48
2023-03-05T03:49:59.121Z,5.14
2023-03-05T03:52:26.528Z,5.18
2023-03-05T03:54:55.717Z,5.34
2023-03-05T03:57:22.368Z,5.17
2023-03-05T03:59:50.362Z,5.04
2023-03-05T04:02:17.393Z,5.49
2023-03-05T04:04:44.213Z,5.39
2023-03-05T04:07:10.941Z,5.23
2023-03-05T04:09:37.486Z,5.21
2023-03-05T04:12:04.192Z,5.01
2023-03-05T04:14:30.836Z,4.92
2023-03-05T04:16:57.522Z,4.77
2023-03-05T04:19:24.223Z,4.76
2023-03-05T04:21:50.854Z,4.90
2023-03-05T04:24:17.500Z,4.76
2023-03-05T04:26:44.102Z,5.13
2023-03-05T04:29:11.059Z,5.18
2023-03-05T04:31:37.573Z,5.08
2023-03-05T04:34:04.136Z,4.92
2023-03-05T04:36:30.723Z,4.78
2023-03-05T04:38:57.424Z,4.78
2023-03-05T04:41:24.073Z,4.91
2023-03-05T04:43:50.738Z,5.00
2023-03-05T04:46:17.323Z,5.00
2023-03-05T04:48:43.905Z,4.98
2023-03-05T04:51:10.551Z,4.75
2023-03-05T04:53:37.164Z,4.66
2023-03-05T04:56:04.164Z,4.69
2023-03-05T04:58:30.760Z,4.67
2023-03-05T05:01:04.660Z,4.32
2023-03-05T05:03:31.785Z,3.98
2023-03-05T05:06:00.217Z,4.01
2023-03-05T05:08:27.978Z,3.95
2023-03-05T05:11:03.579Z,3.86
2023-03-05T05:13:31.404Z,3.68
2023-03-05T05:15:58.371Z,3.69
2023-03-05T05:18:25.477Z,3.73
2023-03-05T05:20:52.158Z,3.75
2023-03-05T05:23:19.288Z,3.66
2023-03-05T05:25:45.855Z,3.67
2023-03-05T05:28:12.554Z,4.00
2023-03-05T05:30:39.266Z,3.93
2023-03-05T05:33:05.852Z,4.25
2023-03-05T05:35:32.522Z,4.10
2023-03-05T05:37:59.069Z,3.98
2023-03-05T05:40:25.638Z,4.18
2023-03-05T05:42:52.428Z,4.07
2023-03-05T05:45:19.161Z,3.83
2023-03-05T05:47:45.786Z,3.85
2023-03-05T05:50:12.653Z,4.01
2023-03-05T05:52:39.248Z,3.95
2023-03-05T05:55:06.513Z,3.99
2023-03-05T05:57:34.446Z,3.84
2023-03-05T06:00:01.229Z,4.13
2023-03-05T06:02:27.917Z,4.04
2023-03-05T06:04:55.757Z,4.46
2023-03-05T06:07:23.173Z,4.64
2023-03-05T06:09:49.790Z,4.37
2023-03-05T06:12:17.709Z,4.57
2023-03-05T06:14:44.574Z,4.06
2023-03-05T06:17:12.920Z,4.05
2023-03-05T06:19:41.534Z,4.15
2023-03-05T06:22:08.079Z,4.08
2023-03-05T06:24:34.785Z,3.97
2023-03-05T06:27:01.752Z,4.15
2023-03-05T06:29:28.344Z,4.07
2023-03-05T06:31:55.120Z,4.01
2023-03-05T06:34:21.794Z,3.84
2023-03-05T06:36:48.413Z,4.42
2023-03-05T06:39:14.994Z,4.45
2023-03-05T06:41:41.670Z,4.50
2023-03-05T06:44:08.236Z,4.35
2023-03-05T06:46:37.464Z,4.31
2023-03-05T06:49:04.245Z,4.42
2023-03-05T06:51:33.951Z,5.00
2023-03-05T06:54:03.057Z,4.69
2023-03-05T06:56:30.076Z,4.72
2023-03-05T06:58:56.951Z,4.95
2023-03-05T07:01:23.859Z,5.09
2023-03-05T07:03:51.928Z,5.00
2023-03-05T07:06:18.774Z,5.10
2023-03-05T07:08:45.344Z,5.22
2023-03-05T07:11:20.650Z,4.89
2023-03-05T07:13:47.950Z,5.04
2023-03-05T07:16:18.317Z,4.88
2023-03-05T07:18:46.044Z,4.79
2023-03-05T07:21:17.605Z,5.10
2023-03-05T07:23:44.303Z,4.85
2023-03-05T07:26:11.580Z,4.74
2023-03-05T07:28:38.287Z,4.56
2023-03-05T07:31:12.161Z,4.60
2023-03-05T07:33:38.950Z,4.68
2023-03-05T07:36:08.707Z,4.80
2023-03-05T07:38:35.767Z,4.74
2023-03-05T07:41:07.453Z,4.82
2023-03-05T07:43:34.012Z,4.73
2023-03-05T07:46:03.533Z,4.68
2023-03-05T07:48:30.250Z,4.70
2023-03-05T07:51:08.480Z,4.59
2023-03-05T07:53:35.122Z,4.57
2023-03-05T07:56:01.786Z,4.41
2023-03-05T07:58:29.193Z,4.35
2023-03-05T08:00:55.982Z,4.68
2023-03-05T08:03:22.551Z,4.48
2023-03-05T08:05:49.177Z,4.50
2023-03-05T08:08:16.639Z,4.60
2023-03-05T08:10:43.337Z,4.73
2023-03-05T08:13:10.378Z,4.79
2023-03-05T08:15:38.298Z,4.40
2023-03-05T08:18:06.357Z,4.52
2023-03-05T08:20:35.791Z,4.33
2023-03-05T08:23:03.482Z,4.88
2023-03-05T08:25:30.099Z,5.00
2023-03-05T08:27:56.994Z,5.31
2023-03-05T08:30:27.290Z,5.37
2023-03-05T08:32:54.677Z,5.23
2023-03-05T08:35:21.497Z,5.29
2023-03-05T08:37:48.829Z,5.52
2023-03-05T08:40:18.015Z,5.25
2023-03-05T08:42:44.599Z,5.55
2023-03-05T08:45:11.846Z,5.38
2023-03-05T08:47:38.479Z,5.22
2023-03-05T08:50:05.402Z,5.36
2023-03-05T08:52:32.096Z,5.20
2023-03-05T08:54:58.617Z,5.13
2023-03-05T08:57:25.112Z,5.79
2023-03-05T08:59:51.776Z,5.60
2023-03-05T09:02:18.315Z,5.51
2023-03-05T09:04:44.819Z,5.29
2023-03-05T09:07:11.537Z,4.92
2023-03-05T09:09:38.075Z,5.07
2023-03-05T09:12:04.895Z,5.25
2023-03-05T09:14:31.643Z,5.26
2023-03-05T09:16:58.652Z,5.20
2023-03-05T09:19:25.444Z,5.35
2023-03-05T09:21:52.101Z,5.40
2023-03-05T09:24:18.628Z,5.06
2023-03-05T09:26:45.181Z,5.36
2023-03-05T09:29:12.575Z,5.44
2023-03-05T09:31:39.859Z,5.54
2023-03-05T09:34:08.278Z,5.52
2023-03-05T09:36:35.421Z,5.28
2023-03-05T09:39:02.290Z,5.60
2023-03-05T09:41:34.511Z,5.84
2023-03-05T09:44:32.080Z,5.75
2023-03-05T09:47:41.488Z,5.77
2023-03-05T09:50:14.150Z,5.52
2023-03-05T09:52:50.399Z,5.71
2023-03-05T09:55:29.622Z,5.93
2023-03-05T09:58:02.128Z,6.05
2023-03-05T10:00:34.592Z,6.07
2023-03-05T10:03:06.723Z,5.73
2023-03-05T10:05:59.416Z,5.66
2023-03-05T10:08:37.190Z,5.95
2023-03-05T10:11:06.994Z,6.11
2023-03-05T10:13:38.452Z,6.77
2023-03-05T10:16:27.908Z,6.88
2023-03-05T10:19:07.949Z,6.20
2023-03-05T10:21:43.324Z,6.38
2023-03-05T10:24:21.974Z,6.48
2023-03-05T10:26:56.114Z,6.73
2023-03-05T10:29:49.081Z,6.50
2023-03-05T10:32:22.160Z,6.76
2023-03-05T10:35:09.998Z,6.21
2023-03-05T10:37:48.846Z,6.41
2023-03-05T10:40:35.180Z,6.41
2023-03-05T10:43:14.027Z,6.70
2023-03-05T10:45:44.754Z,6.99
2023-03-05T10:48:36.674Z,6.89
2023-03-05T10:51:10.634Z,7.16
2023-03-05T10:53:42.663Z,7.14
2023-03-05T10:56:12.083Z,6.88
2023-03-05T10:58:38.626Z,7.13
2023-03-05T11:01:11.344Z,6.94
2023-03-05T11:04:03.709Z,6.83
2023-03-05T11:06:39.604Z,6.96
2023-03-05T11:09:24.638Z,6.84
2023-03-05T11:12:20.093Z,7.38
2023-03-05T11:15:02.300Z,7.57
2023-03-05T11:17:38.581Z,7.38
2023-03-05T11:20:29.678Z,7.29
2023-03-05T11:23:13.074Z,7.61
2023-03-05T11:25:51.367Z,7.38
2023-03-05T11:28:32.025Z,7.76
2023-03-05T11:31:07.746Z,7.60
2023-03-05T11:33:36.520Z,7.61
2023-03-05T11:36:20.335Z,7.73
2023-03-05T11:38:52.942Z,7.66
2023-03-05T11:41:26.273Z,7.68
2023-03-05T11:43:54.530Z,7.67
2023-03-05T11:46:22.263Z,7.86
2023-03-05T11:48:50.169Z,8.05
2023-03-05T11:51:23.251Z,8.04
2023-03-05T11:53:54.466Z,8.07
2023-03-05T11:56:24.432Z,7.84
2023-03-05T11:59:20.558Z,7.88
2023-03-05T12:01:51.517Z,8.04
2023-03-05T12:04:20.057Z,7.88
2023-03-05T12:06:57.990Z,8.29
2023-03-05T12:09:31.574Z,8.42
2023-03-05T12:12:30.980Z,8.65
2023-03-05T12:15:25.892Z,8.49
2023-03-05T12:18:10.999Z,8.49
2023-03-05T12:20:47.989Z,8.61
2023-03-05T12:23:19.026Z,8.86
2023-03-05T12:25:57.897Z,8.85
2023-03-05T12:28:37.168Z,9.13
2023-03-05T12:31:23.254Z,9.10
2023-03-05T12:33:49.942Z,9.35
2023-03-05T12:36:19.565Z,9.16
2023-03-05T12:38:53.003Z,9.39
2023-03-05T12:41:22.267Z,9.20
2023-03-05T12:44:07.249Z,9.12
2023-03-05T12:46:39.355Z,9.18
2023-03-05T12:49:18.024Z,8.96
2023-03-05T12:51:52.691Z,9.09
2023-03-05T12:54:35.263Z,9.21
2023-03-05T12:57:06.093Z,9.08
2023-03-05T12:59:51.419Z,9.17
2023-03-05T13:02:26.714Z,9.39
2023-03-05T13:04:58.547Z,9.13
2023-03-05T13:07:25.049Z,9.28
2023-03-05T13:09:57.336Z,9.38
2023-03-05T13:12:26.165Z,9.05
2023-03-05T13:15:02.635Z,9.25
2023-03-05T13:17:44.574Z,9.45
2023-03-05T13:20:42.625Z,9.47
2023-03-05T13:23:27.974Z,9.20
2023-03-05T13:26:04.344Z,9.41
2023-03-05T13:28:32.819Z,9.56
2023-03-05T13:31:02.866Z,9.64
2023-03-05T13:33:32.699Z,9.86
2023-03-05T13:35:59.789Z,9.65
2023-03-05T13:38:35.845Z,9.58
2023-03-05T13:41:29.456Z,9.74
2023-03-05T13:44:01.956Z,9.82
2023-03-05T13:46:34.416Z,9.83
2023-03-05T13:49:22.259Z,10.17
2023-03-05T13:51:54.934Z,9.99
2023-03-05T13:54:23.646Z,10.03
2023-03-05T13:56:56.627Z,10.03
2023-03-05T13:59:25.957Z,9.88
2023-03-05T14:01:53.056Z,10.27
2023-03-05T14:04:23.481Z,10.20
2023-03-05T14:06:55.750Z,10.39
2023-03-05T14:09:31.005Z,10.03
2023-03-05T14:12:14.824Z,10.06
2023-03-05T14:14:43.715Z,10.19
2023-03-05T14:17:36.722Z,10.16
2023-03-05T14:20:09.838Z,10.40
2023-03-05T14:22:38.635Z,10.68
2023-03-05T14:25:06.564Z,10.61
2023-03-05T14:27:36.801Z,10.35
2023-03-05T14:30:05.219Z,10.57
2023-03-05T14:32:34.787Z,10.23
2023-03-05T14:35:04.520Z,10.36
2023-03-05T14:37:42.234Z,10.33
2023-03-05T14:40:12.283Z,10.39
2023-03-05T14:42:54.510Z,10.40
2023-03-05T14:45:27.434Z,10.54
2023-03-05T14:47:57.352Z,10.61
2023-03-05T14:50:36.428Z,10.28
2023-03-05T14:53:07.485Z,10.56
2023-03-05T14:55:34.680Z,11.07
2023-03-05T14:58:06.904Z,11.04
2023-03-05T15:00:33.484Z,10.97
2023-03-05T15:03:00.239Z,10.64
2023-03-05T15:05:27.071Z,10.73
2023-03-05T15:07:53.701Z,10.83
2023-03-05T15:10:23.557Z,10.86
2023-03-05T15:12:51.440Z,10.86
2023-03-05T15:15:19.703Z,10.89
2023-03-05T15:17:48.710Z,10.84
2023-03-05T15:20:19.179Z,10.53
2023-03-05T15:22:45.790Z,10.67
2023-03-05T15:25:13.294Z,10.87
2023-03-05T15:27:40.152Z,10.62
2023-03-05T15:30:09.376Z,10.84
2023-03-05T15:32:36.079Z,11.08
2023-03-05T15:35:03.005Z,11.05
2023-03-05T15:37:29.771Z,10.96
2023-03-05T15:39:56.376Z,10.88
2023-03-05T15:42:23.060Z,11.25
2023-03-05T15:44:49.620Z,11.32
2023-03-05T15:47:16.247Z,11.07
2023-03-05T15:49:42.914Z,10.98
2023-03-05T15:52:09.472Z,11.21
2023-03-05T15:54:36.935Z,11.16
2023-03-05T15:57:08.099Z,11.20
2023-03-05T15:59:34.645Z,11.32
2023-03-05T16:02:02.145Z,11.19
2023-03-05T16:04:31.812Z,11.20
2023-03-05T16:07:00.699Z,11.27
2023-03-05T16:09:32.535Z,10.96
2023-03-05T16:11:59.090Z,11.18
2023-03-05T16:14:27.880Z,11.03
2023-03-05T16:16:55.981Z,11.16
2023-03-05T16:19:23.933Z,11.15
2023-03-05T16:21:50.475Z,10.91
2023-03-05T16:24:17.606Z,10.88
2023-03-05T16:26:44.224Z,10.88
2023-03-05T16:29:11.938Z,11.19
2023-03-05T16:31:40.750Z,11.18
2023-03-05T16:34:07.452Z,10.94
2023-03-05T16:36:35.684Z,10.61
2023-03-05T16:39:04.598Z,10.66
2023-03-05T16:41:31.799Z,10.87
2023-03-05T16:43:59.533Z,10.80
2023-03-05T16:46:28.861Z,10.63
2023-03-05T16:48:55.561Z,10.89
2023-03-05T16:51:22.379Z,10.77
2023-03-05T16:53:49.543Z,10.49
2023-03-05T16:56:16.541Z,10.62
2023-03-05T16:58:43.098Z,10.73
2023-03-05T17:01:18.573Z,10.47
2023-03-05T17:03:46.341Z,10.64
2023-03-05T17:06:18.195Z,10.73
2023-03-05T17:08:46.371Z,10.68
2023-03-05T17:11:13.648Z,10.42
2023-03-05T17:13:40.870Z,10.30
2023-03-05T17:16:11.269Z,10.18
2023-03-05T17:18:38.206Z,10.23
2023-03-05T17:21:07.197Z,10.05
2023-03-05T17:23:35.632Z,10.05
2023-03-05T17:26:11.118Z,9.99
2023-03-05T17:28:38.824Z,10.09
2023-03-05T17:31:05.586Z,10.16
2023-03-05T17:33:32.908Z,10.06
2023-03-05T17:35:59.775Z,9.76
2023-03-05T17:38:26.845Z,9.88
2023-03-05T17:40:53.435Z,9.80
2023-03-05T17:43:20.403Z,9.90
2023-03-05T17:45:47.545Z,9.81
2023-03-05T17:48:15.729Z,9.78
2023-03-05T17:50:42.970Z,9.70
2023-03-05T17:53:09.713Z,9.50
2023-03-05T17:55:36.301Z,9.49
2023-03-05T17:58:02.913Z,9.52
2023-03-05T18:00:31.118Z,9.52
2023-03-05T18:03:00.779Z,9.53
2023-03-05T18:05:29.050Z,9.49
2023-03-05T18:07:56.341Z,9.56
2023-03-05T18:10:28.310Z,9.49
2023-03-05T18:12:55.176Z,9.72
2023-03-05T18:15:23.866Z,9.58
2023-03-05T18:17:51.301Z,9.62
2023-03-05T18:20:32.261Z,9.63
2023-03-05T18:23:01.260Z,9.75
2023-03-05T18:25:31.286Z,9.61
2023-03-05T18:28:02.400Z,9.60
2023-03-05T18:30:29.365Z,9.55
2023-03-05T18:32:55.998Z,9.46
2023-03-05T18:35:23.155Z,9.45
2023-03-05T18:37:49.789Z,9.34
2023-03-05T18:40:19.783Z,9.36
2023-03-05T18:42:46.633Z,9.40
2023-03-05T18:45:15.260Z,9.42
2023-03-05T18:47:44.702Z,9.37
2023-03-05T18:50:16.874Z,9.27
2023-03-05T18:52:43.763Z,9.27
2023-03-05T18:55:22.638Z,9.13
2023-03-05T18:57:49.346Z,9.10
2023-03-05T19:00:19.276Z,8.98
2023-03-05T19:02:45.950Z,8.99
2023-03-05T19:05:14.469Z,8.94
2023-03-05T19:07:41.327Z,8.85
2023-03-05T19:10:10.065Z,8.79
2023-03-05T19:12:45.394Z,8.83
2023-03-05T19:15:13.691Z,8.91
2023-03-05T19:17:40.751Z,8.81
2023-03-05T19:20:10.352Z,8.70
2023-03-05T19:22:37.053Z,8.70
2023-03-05T19:25:03.772Z,8.57
2023-03-05T19:27:30.325Z,8.56
2023-03-05T19:29:57.087Z,8.58
2023-03-05T19:32:24.195Z,8.70
2023-03-05T19:34:54.417Z,8.54
2023-03-05T19:37:21.149Z,8.62
2023-03-05T19:39:48.162Z,8.45
2023-03-05T19:42:15.132Z,8.24
2023-03-05T19:44:41.822Z,8.18
2023-03-05T19:47:08.388Z,8.27
2023-03-05T19:49:35.895Z,7.81
2023-03-05T19:52:04.408Z,7.72
2023-03-05T19:54:31.097Z,7.69
2023-03-05T19:56:58.982Z,7.73
2023-03-05T19:59:26.676Z,7.60
2023-03-05T20:01:53.625Z,7.57
2023-03-05T20:04:22.360Z,7.61
2023-03-05T20:06:49.515Z,7.31
2023-03-05T20:09:16.608Z,7.35
2023-03-05T20:11:43.625Z,7.37
2023-03-05T20:14:13.151Z,7.62
2023-03-05T20:16:39.735Z,7.56
2023-03-05T20:19:07.957Z,7.51
2023-03-05T20:21:37.549Z,7.36
2023-03-05T20:24:09.567Z,7.18
2023-03-05T20:26:38.263Z,6.74
2023-03-05T20:29:05.153Z,6.78
2023-03-05T20:31:37.165Z,6.84
2023-03-05T20:34:16.496Z,6.83
2023-03-05T20:36:43.229Z,6.84
2023-03-05T20:39:10.430Z,7.24
2023-03-05T20:41:39.131Z,7.10
2023-03-05T20:44:07.046Z,7.12
2023-03-05T20:46:36.876Z,7.46
2023-03-05T20:49:04.686Z,7.57
2023-03-05T20:51:35.077Z,7.38
2023-03-05T20:54:04.906Z,7.41
2023-03-05T20:56:33.004Z,7.38
2023-03-05T20:59:02.848Z,7.18
2023-03-05T21:01:30.444Z,7.03
2023-03-05T21:03:57.413Z,6.88
2023-03-05T21:06:24.680Z,6.73
2023-03-05T21:08:51.372Z,6.86
2023-03-05T21:11:18.397Z,6.73
2023-03-05T21:13:45.258Z,6.70
2023-03-05T21:16:16.697Z,6.50
2023-03-05T21:18:43.420Z,6.51
2023-03-05T21:21:09.974Z,6.66
2023-03-05T21:23:36.566Z,6.89
2023-03-05T21:26:04.370Z,6.81
2023-03-05T21:28:31.821Z,6.88
2023-03-05T21:30:58.569Z,6.91
2023-03-05T21:33:28.170Z,6.88
2023-03-05T21:35:57.032Z,6.95
2023-03-05T21:38:25.612Z,6.88
2023-03-05T21:40:54.026Z,7.12
2023-03-05T21:43:23.119Z,7.26
2023-03-05T21:45:52.614Z,7.35
2023-03-05T21:48:19.809Z,7.29
2023-03-05T21:50:47.246Z,7.63
2023-03-05T21:53:15.320Z,7.09
2023-03-05T21:56:04.264Z,7.03
2023-03-05T21:58:35.120Z,7.32
2023-03-05T22:01:02.291Z,7.01
2023-03-05T22:03:29.819Z,7.03
2023-03-05T22:05:57.346Z,7.15
2023-03-05T22:08:24.504Z,6.71
2023-03-05T22:10:51.885Z,6.68
2023-03-05T22:13:20.135Z,6.97
2023-03-05T22:15:49.688Z,6.78
2023-03-05T22:18:18.610Z,7.05
2023-03-05T22:20:45.549Z,6.98
2023-03-05T22:23:12.952Z,6.68
2023-03-05T22:25:40.222Z,6.54
2023-03-05T22:28:07.306Z,6.57
2023-03-05T22:30:33.904Z,6.53
2023-03-05T22:33:01.925Z,6.63
2023-03-05T22:35:28.798Z,6.33
2023-03-05T22:37:55.447Z,6.11
2023-03-05T22:40:22.973Z,6.56
2023-03-05T22:42:49.642Z,6.23
2023-03-05T22:45:19.302Z,6.39
2023-03-05T22:47:48.478Z,6.12
2023-03-05T22:50:16.340Z,6.34
2023-03-05T22:52:43.218Z,6.09
2023-03-05T22:55:12.978Z,6.30
2023-03-05T22:57:39.677Z,5.77
2023-03-05T23:00:13.510Z,5.83
2023-03-05T23:02:44.520Z,5.70
2023-03-05T23:05:11.838Z,5.49
2023-03-05T23:07:41.556Z,5.88
2023-03-05T23:10:20.878Z,6.12
2023-03-05T23:12:50.952Z,6.12
2023-03-05T23:15:22.597Z,5.73
2023-03-05T23:17:49.190Z,5.81
2023-03-05T23:20:18.002Z,5.66
2023-03-05T23:22:45.224Z,5.45
2023-03-05T23:25:13.311Z,5.59
2023-03-05T23:27:41.014Z,5.92
2023-03-05T23:30:17.693Z,5.67
2023-03-05T23:32:45.653Z,5.31
2023-03-05T23:35:14.737Z,5.09
2023-03-05T23:37:41.580Z,5.25
2023-03-05T23:40:11.947Z,5.73
2023-03-05T23:42:39.132Z,5.45
2023-03-05T23:45:07.288Z,5.36
2023-03-05T23:47:37.763Z,5.28
2023-03-05T23:50:06.188Z,5.27
2023-03-05T23:52:33.079Z,5.09
2023-03-05T23:54:59.885Z,5.20
2023-03-05T23:57:26.638Z,5.16
2023-03-05T23:59:53.211Z,5.02
